createdAt,value
2023-03-23T15:58:40.300Z,99922.03
2023-03-23T16:01:46.067Z,99925.50
2023-03-23T16:04:49.048Z,99917.87
2023-03-23T16:07:52.124Z,99920.97
2023-03-23T16:10:54.726Z,99917.28
2023-03-23T16:13:57.201Z,99918.81
2023-03-23T16:16:59.935Z,99923.84
2023-03-23T16:20:04.041Z,99926.34
2023-03-23T16:23:08.508Z,99929.38
2023-03-23T16:26:11.804Z,99922.84
2023-03-23T16:29:28.233Z,99919.72
2023-03-23T16:35:40.710Z,99919.31
2023-03-23T16:38:49.687Z,99927.50
2023-03-23T16:41:53.792Z,99926.69
2023-03-23T16:44:58.736Z,99932.16
2023-03-23T16:48:02.626Z,99931.03
2023-03-23T16:51:06.477Z,99927.75
2023-03-23T16:54:09.181Z,99926.31
2023-03-23T16:57:12.722Z,99924.34
2023-03-23T17:00:20.471Z,99919.88
2023-03-23T17:03:23.731Z,99927.78
2023-03-23T17:06:27.774Z,99934.41
2023-03-23T17:09:30.972Z,99938.19
2023-03-23T17:12:34.259Z,99935.19
2023-03-23T17:15:39.254Z,99935.13
2023-03-23T17:18:42.796Z,99942.31
2023-03-23T17:21:45.892Z,99936.56
2023-03-23T17:24:49.426Z,99950.56
2023-03-23T17:27:53.097Z,99943.75
2023-03-23T17:30:55.912Z,99946.00
2023-03-23T17:33:59.002Z,99953.16
2023-03-23T17:37:01.770Z,99951.00
2023-03-23T17:40:05.393Z,99959.78
2023-03-23T17:43:08.462Z,99963.94
2023-03-23T17:46:11.205Z,99966.62
2023-03-23T17:49:14.061Z,99968.16
2023-03-23T17:52:17.046Z,99974.78
2023-03-23T17:55:19.524Z,99966.72
2023-03-23T17:58:22.293Z,99969.34
2023-03-23T18:01:25.681Z,99969.16
2023-03-23T18:04:28.955Z,99979.03
2023-03-23T18:07:32.317Z,99972.59
2023-03-23T18:10:36.880Z,99976.81
2023-03-23T18:13:42.998Z,99981.03
2023-03-23T18:16:46.556Z,99975.72
2023-03-23T18:19:49.192Z,99982.91
2023-03-23T18:22:51.542Z,99985.97
2023-03-23T18:25:54.225Z,99983.34
2023-03-23T18:28:57.432Z,99991.78
2023-03-23T18:31:59.949Z,99991.22
2023-03-23T18:35:02.895Z,99988.88
2023-03-23T18:38:05.783Z,99983.78
2023-03-23T18:41:10.160Z,99985.56
2023-03-23T18:44:13.847Z,99992.47
2023-03-23T18:47:17.351Z,99992.97
2023-03-23T18:50:19.816Z,99995.59
2023-03-23T18:53:23.124Z,99994.47
2023-03-23T18:56:26.737Z,99994.88
2023-03-23T18:59:30.835Z,99989.09
2023-03-23T19:02:33.708Z,99987.25
2023-03-23T19:05:40.062Z,99986.16
2023-03-23T19:08:45.310Z,99990.41
2023-03-23T19:11:48.551Z,99991.06
2023-03-23T19:14:52.032Z,99992.03
2023-03-23T19:17:56.436Z,99987.19
2023-03-23T19:24:04.994Z,99982.19
2023-03-23T19:27:08.209Z,99979.66
2023-03-23T19:30:11.198Z,99985.28
2023-03-23T19:33:14.076Z,99979.28
2023-03-23T19:36:16.902Z,99978.84
2023-03-23T19:39:19.445Z,99980.91
2023-03-23T19:42:22.428Z,99992.75
2023-03-23T19:45:25.288Z,99996.34
2023-03-23T19:48:28.800Z,99998.12
2023-03-23T19:51:31.725Z,100004.00
2023-03-23T19:54:34.289Z,100001.19
2023-03-23T19:57:37.450Z,100006.66
2023-03-23T20:00:40.274Z,100000.22
2023-03-23T20:03:43.435Z,100010.25
2023-03-23T20:06:46.500Z,100015.84
2023-03-23T20:09:48.940Z,100010.06
2023-03-23T20:12:51.781Z,100017.81
2023-03-23T20:15:55.868Z,100016.94
2023-03-23T20:19:00.706Z,100014.09
2023-03-23T20:22:03.269Z,100014.75
2023-03-23T20:25:07.992Z,100018.66
2023-03-23T20:28:10.426Z,100011.22
2023-03-23T20:31:23.454Z,100015.28
2023-03-23T20:34:29.889Z,100019.06
2023-03-23T20:37:34.812Z,100021.31
2023-03-23T20:40:37.688Z,100014.81
2023-03-23T20:43:40.897Z,100019.25
2023-03-23T20:46:44.623Z,100021.41
2023-03-23T20:49:52.826Z,100020.69
2023-03-23T20:52:55.492Z,100025.19
2023-03-23T20:55:59.477Z,100018.19
2023-03-23T20:59:02.432Z,100011.41
2023-03-23T21:02:06.108Z,100018.19
2023-03-23T21:05:09.416Z,100011.66
2023-03-23T21:08:12.208Z,100008.38
2023-03-23T21:11:18.516Z,100016.87
2023-03-23T21:14:21.352Z,100013.09
2023-03-23T21:17:24.348Z,100012.94
2023-03-23T21:20:27.750Z,100011.47
2023-03-23T21:23:30.911Z,100003.84
2023-03-23T21:26:34.425Z,100008.00
2023-03-23T21:29:37.335Z,99992.53
2023-03-23T21:32:40.106Z,99998.72
2023-03-23T21:35:42.830Z,100001.16
2023-03-23T21:38:46.720Z,99998.50
2023-03-23T21:41:50.205Z,100009.53
2023-03-23T21:44:54.534Z,100009.66
2023-03-23T21:47:57.400Z,100010.94
2023-03-23T21:51:05.293Z,100022.22
2023-03-23T21:54:08.414Z,100020.22
2023-03-23T21:57:11.737Z,100019.75
2023-03-23T22:00:15.342Z,100014.06
2023-03-23T22:03:23.029Z,100005.88
2023-03-23T22:06:31.107Z,100007.72
2023-03-23T22:09:34.691Z,100004.78
2023-03-23T22:12:37.446Z,99996.34
2023-03-23T22:15:40.322Z,100003.94
2023-03-23T22:18:43.914Z,100013.59
2023-03-23T22:21:46.824Z,100017.38
2023-03-23T22:24:49.739Z,100008.50
2023-03-23T22:27:52.992Z,100005.31
2023-03-23T22:30:56.125Z,100004.72
2023-03-23T22:33:58.892Z,100010.19
2023-03-23T22:37:01.666Z,100014.81
2023-03-23T22:40:07.789Z,100016.84
2023-03-23T22:43:11.332Z,100008.91
2023-03-23T22:46:14.681Z,100015.94
2023-03-23T22:49:17.452Z,100018.69
2023-03-23T22:52:20.533Z,100021.66
2023-03-23T22:55:23.829Z,100024.28
2023-03-23T22:58:27.348Z,100029.16
2023-03-23T23:01:30.584Z,100024.53
2023-03-23T23:04:33.675Z,100023.41
2023-03-23T23:07:37.530Z,100024.47
2023-03-23T23:10:40.929Z,100022.97
2023-03-23T23:13:44.227Z,100030.19
2023-03-23T23:16:48.773Z,100026.03
2023-03-23T23:19:52.445Z,100029.69
2023-03-23T23:22:56.380Z,100026.03
2023-03-23T23:25:59.550Z,100019.41
2023-03-23T23:29:03.362Z,100024.72
2023-03-23T23:32:07.371Z,100019.84
2023-03-23T23:35:11.098Z,100027.09
2023-03-23T23:38:13.985Z,100013.81
2023-03-23T23:41:16.679Z,100018.53
2023-03-23T23:44:19.543Z,100019.03
2023-03-23T23:47:22.778Z,100011.09
2023-03-23T23:50:25.534Z,100012.25
2023-03-23T23:53:30.473Z,100018.62
2023-03-23T23:56:33.312Z,100008.19
2023-03-23T23:59:36.581Z,100011.06
